Time;durP1;ratioP1;P1;durP2;ratioP2;P2;SDS_P1;SDS_P2;PMS_P1;PMS_P2;Temp;Humidity;BMP_temperature;BMP_pressure;BME280_temperature;BME280_humidity;BME280_pressure;Samples;Min_cycle;Max_cycle;Signal;HPM_P1;HPM_P2
2022/03/04 00:01:27;;;;;;;28.45;17.35;;;10.00;99.90;;;;;;4981438;28;20034;-60
2022/03/04 00:03:54;;;;;;;26.00;16.75;;;10.00;99.90;;;;;;4979892;28;20066;-61
2022/03/04 00:06:22;;;;;;;23.23;16.95;;;10.10;99.90;;;;;;4996887;28;20034;-60
2022/03/04 00:08:50;;;;;;;21.77;15.02;;;10.10;99.90;;;;;;4979898;28;20055;-60
2022/03/04 00:11:17;;;;;;;25.48;17.35;;;10.10;99.90;;;;;;4996413;28;20045;-61
2022/03/04 00:13:44;;;;;;;27.30;16.15;;;10.20;99.90;;;;;;4979942;28;20065;-61
2022/03/04 00:16:11;;;;;;;24.63;15.43;;;10.20;99.90;;;;;;4997076;28;20050;-61
2022/03/04 00:18:38;;;;;;;25.60;16.65;;;10.20;99.90;;;;;;4997448;28;20031;-61
2022/03/04 00:21:05;;;;;;;29.42;17.00;;;10.20;99.90;;;;;;4997556;28;20039;-60
2022/03/04 00:23:32;;;;;;;24.83;16.27;;;10.20;99.90;;;;;;4965555;28;20038;-59
2022/03/04 00:26:00;;;;;;;24.08;16.55;;;10.20;99.90;;;;;;4997892;28;20035;-59
2022/03/04 00:28:27;;;;;;;27.05;16.73;;;10.20;99.90;;;;;;4996922;28;20066;-60
2022/03/04 00:30:54;;;;;;;24.30;17.13;;;10.20;99.90;;;;;;4996334;28;20069;-59
2022/03/04 00:33:21;;;;;;;30.75;16.30;;;10.20;99.90;;;;;;4979662;28;20058;-60
2022/03/04 00:35:48;;;;;;;23.02;14.90;;;10.20;99.90;;;;;;4979975;28;20097;-61
2022/03/04 00:38:14;;;;;;;24.40;16.50;;;10.20;99.90;;;;;;4996782;28;20031;-62
2022/03/04 00:40:41;;;;;;;22.45;15.93;;;10.20;99.90;;;;;;4979830;28;20034;-59
2022/03/04 00:43:08;;;;;;;30.27;18.05;;;10.20;99.90;;;;;;4997191;28;20058;-60
2022/03/04 00:45:35;;;;;;;21.58;15.20;;;10.10;99.90;;;;;;4997671;28;20054;-60
2022/03/04 00:48:02;;;;;;;24.17;16.48;;;10.10;99.90;;;;;;4961999;28;20101;-60
2022/03/04 00:50:28;;;;;;;28.23;17.35;;;10.10;99.90;;;;;;4982676;28;20074;-60
2022/03/04 00:52:57;;;;;;;26.63;16.10;;;10.00;99.90;;;;;;4964567;28;20045;-60
2022/03/04 00:55:24;;;;;;;21.38;14.98;;;10.10;99.90;;;;;;4965332;28;20074;-61
2022/03/04 00:57:52;;;;;;;26.08;16.48;;;10.10;99.90;;;;;;4980744;28;20030;-61
2022/03/04 01:00:18;;;;;;;22.08;15.65;;;10.10;99.90;;;;;;4980550;28;20041;-60
2022/03/04 01:02:45;;;;;;;26.20;17.55;;;10.10;99.90;;;;;;4997226;28;20050;-60
2022/03/04 01:05:12;;;;;;;28.13;17.10;;;10.10;99.90;;;;;;4980745;28;20076;-61
2022/03/04 01:07:39;;;;;;;27.00;17.67;;;10.20;99.90;;;;;;4978640;28;20139;-60
2022/03/04 01:10:06;;;;;;;25.60;16.83;;;10.20;99.90;;;;;;4996708;28;20039;-61
2022/03/04 01:12:33;;;;;;;27.95;16.08;;;10.20;99.90;;;;;;4996854;28;20031;-59
2022/03/04 01:15:00;;;;;;;22.33;14.95;;;10.10;99.90;;;;;;4997303;28;20061;-60
2022/03/04 01:17:27;;;;;;;22.35;15.77;;;10.10;99.90;;;;;;4997087;28;20030;-60
2022/03/04 01:19:53;;;;;;;21.85;14.43;;;10.10;99.90;;;;;;4996787;28;20090;-61
2022/03/04 01:22:22;;;;;;;21.60;14.80;;;10.10;99.90;;;;;;4976070;28;20035;-60
2022/03/04 01:24:49;;;;;;;26.45;16.77;;;10.10;99.90;;;;;;4975893;28;20031;-60
2022/03/04 01:27:15;;;;;;;27.17;18.70;;;10.10;99.90;;;;;;4996786;28;20030;-59
2022/03/04 01:29:42;;;;;;;32.85;17.98;;;10.10;99.90;;;;;;4996869;28;20108;-60
2022/03/04 01:32:09;;;;;;;23.02;17.10;;;10.00;99.90;;;;;;4964347;28;20050;-59
2022/03/04 01:34:36;;;;;;;26.58;18.60;;;10.00;99.90;;;;;;4995972;28;20031;-60
2022/03/04 01:37:04;;;;;;;27.20;18.88;;;10.00;99.90;;;;;;4996862;28;20026;-60
2022/03/04 01:39:31;;;;;;;35.90;21.00;;;10.00;99.90;;;;;;4653202;28;10000197;-60
2022/03/04 01:41:58;;;;;;;34.30;22.20;;;9.90;99.90;;;;;;4996535;28;20452;-60
2022/03/04 01:44:25;;;;;;;35.72;22.95;;;10.00;99.90;;;;;;4976516;28;20046;-60
2022/03/04 01:46:52;;;;;;;33.63;21.45;;;10.00;99.90;;;;;;4978292;28;20031;-60
2022/03/04 01:49:19;;;;;;;38.58;22.60;;;9.90;99.90;;;;;;4995596;28;20053;-61
2022/03/04 01:51:45;;;;;;;43.13;22.90;;;9.90;99.90;;;;;;4996017;28;20042;-64
2022/03/04 01:54:12;;;;;;;33.72;21.67;;;9.90;99.90;;;;;;4995868;28;20055;-60
2022/03/04 01:56:40;;;;;;;39.72;22.83;;;9.80;99.90;;;;;;4980346;28;20051;-60
2022/03/04 01:59:06;;;;;;;34.28;21.67;;;9.80;99.90;;;;;;4979807;28;20043;-61
2022/03/04 02:01:34;;;;;;;31.17;21.55;;;9.80;99.90;;;;;;4964478;28;20035;-60
2022/03/04 02:04:02;;;;;;;42.88;22.98;;;9.70;99.90;;;;;;4979512;28;20074;-60
2022/03/04 02:06:29;;;;;;;31.63;20.67;;;9.70;99.90;;;;;;4976682;28;20071;-60
2022/03/04 02:08:56;;;;;;;32.40;19.77;;;9.70;99.90;;;;;;4971876;28;20026;-61
2022/03/04 02:11:22;;;;;;;31.98;20.90;;;9.70;99.90;;;;;;4995866;28;20066;-61
2022/03/04 02:13:49;;;;;;;30.38;18.85;;;9.80;99.90;;;;;;4979244;28;20046;-60
2022/03/04 02:16:23;;;;;;;29.60;18.70;;;9.80;99.90;;;;;;4996539;28;20035;-60
2022/03/04 02:18:50;;;;;;;27.38;19.10;;;9.80;99.90;;;;;;4979488;28;20035;-61
2022/03/04 02:21:17;;;;;;;29.95;18.65;;;9.80;99.90;;;;;;4979604;28;20070;-61
2022/03/04 02:23:44;;;;;;;30.73;19.92;;;9.80;99.90;;;;;;4958322;28;20058;-61
2022/03/04 02:26:10;;;;;;;31.15;19.60;;;9.80;99.90;;;;;;4993976;28;20030;-61
2022/03/04 02:28:39;;;;;;;28.65;18.83;;;9.80;99.90;;;;;;4961864;28;20058;-60
2022/03/04 02:31:06;;;;;;;30.50;20.60;;;9.90;99.90;;;;;;4957892;28;20116;-60
2022/03/04 02:33:33;;;;;;;36.38;21.55;;;9.80;99.90;;;;;;4977679;28;20083;-61
2022/03/04 02:36:00;;;;;;;32.97;21.02;;;9.90;99.90;;;;;;4996668;28;20050;-61
2022/03/04 02:38:27;;;;;;;37.13;21.73;;;9.90;99.90;;;;;;5004085;28;20031;-61
2022/03/04 02:40:54;;;;;;;36.03;21.80;;;9.90;99.90;;;;;;4997238;28;20269;-60
2022/03/04 02:43:21;;;;;;;37.08;20.92;;;9.90;99.90;;;;;;4997338;28;20043;-59
2022/03/04 02:46:26;;;;;;;33.28;20.92;;;9.90;99.90;;;;;;4996798;28;20030;-60
2022/03/04 02:48:55;;;;;;;32.22;20.83;;;9.90;99.90;;;;;;4977109;28;20161;-60
2022/03/04 02:51:21;;;;;;;33.83;21.10;;;9.90;99.90;;;;;;4996426;28;20066;-60
2022/03/04 02:53:48;;;;;;;33.30;20.23;;;9.90;99.90;;;;;;4997380;28;20031;-60
2022/03/04 02:56:15;;;;;;;36.67;21.85;;;9.90;99.90;;;;;;4979878;28;20047;-60
2022/03/04 02:58:42;;;;;;;37.88;21.25;;;9.90;99.90;;;;;;4997254;28;20066;-58
2022/03/04 03:01:09;;;;;;;37.50;21.17;;;9.90;99.90;;;;;;4980060;28;20105;-59
2022/03/04 03:03:36;;;;;;;37.30;21.38;;;9.90;99.90;;;;;;4981223;28;20047;-59
2022/03/04 03:06:03;;;;;;;35.17;22.10;;;9.90;99.90;;;;;;4996356;28;20038;-60
2022/03/04 03:08:30;;;;;;;36.05;22.20;;;9.90;99.90;;;;;;4980374;28;20055;-60
2022/03/04 03:10:59;;;;;;;39.22;21.25;;;9.90;99.90;;;;;;4996240;28;20035;-60
2022/03/04 03:13:26;;;;;;;33.70;20.52;;;9.80;99.90;;;;;;4996518;28;20034;-59
2022/03/04 03:15:53;;;;;;;34.95;22.08;;;9.80;99.90;;;;;;4996724;28;20242;-59
2022/03/04 03:18:20;;;;;;;30.50;20.40;;;9.70;99.90;;;;;;4996592;28;20203;-59
2022/03/04 03:20:46;;;;;;;33.00;20.45;;;9.70;99.90;;;;;;4996042;28;20042;-60
2022/03/04 03:23:13;;;;;;;31.80;19.38;;;9.70;99.90;;;;;;4963667;28;20035;-60
2022/03/04 03:25:40;;;;;;;28.30;18.77;;;9.60;99.90;;;;;;4996568;28;20050;-59
2022/03/04 03:28:07;;;;;;;33.67;20.40;;;9.60;99.90;;;;;;4996272;28;20105;-63
2022/03/04 03:30:34;;;;;;;32.65;19.50;;;9.70;99.90;;;;;;4964040;28;20039;-60
2022/03/04 03:33:00;;;;;;;29.33;19.02;;;9.70;99.90;;;;;;4964067;28;20023;-62
2022/03/04 03:35:27;;;;;;;35.60;19.30;;;9.70;99.90;;;;;;4995962;28;20030;-61
2022/03/04 03:37:54;;;;;;;25.63;17.50;;;9.80;99.90;;;;;;4998769;28;20038;-58
2022/03/04 03:40:21;;;;;;;34.22;18.65;;;9.80;99.90;;;;;;4996708;28;20066;-63
2022/03/04 03:42:50;;;;;;;27.38;18.08;;;9.70;99.90;;;;;;4996170;28;20051;-60
2022/03/04 03:45:16;;;;;;;29.42;19.52;;;9.70;99.90;;;;;;4979721;28;20031;-60
2022/03/04 03:47:43;;;;;;;27.10;17.05;;;9.70;99.90;;;;;;4979564;28;20113;-61
2022/03/04 03:50:11;;;;;;;28.75;17.83;;;9.70;99.90;;;;;;4996581;28;20053;-60
2022/03/04 03:52:37;;;;;;;30.70;19.40;;;9.70;99.90;;;;;;4979958;28;20062;-59
2022/03/04 03:55:05;;;;;;;27.40;17.45;;;9.70;99.90;;;;;;4996157;28;20062;-61
2022/03/04 03:57:33;;;;;;;32.67;18.02;;;9.70;99.90;;;;;;4996708;28;20066;-60
2022/03/04 03:59:59;;;;;;;29.63;16.65;;;9.70;99.90;;;;;;4996811;28;20401;-61
2022/03/04 04:02:26;;;;;;;28.35;17.50;;;9.70;99.90;;;;;;4993323;28;20236;-60
2022/03/04 04:04:54;;;;;;;32.13;17.85;;;9.70;99.90;;;;;;4989321;28;20035;-61
2022/03/04 04:07:21;;;;;;;29.42;16.73;;;9.70;99.90;;;;;;4996183;28;20031;-58
2022/03/04 04:09:48;;;;;;;28.77;16.00;;;9.70;99.90;;;;;;4979779;28;20058;-60
2022/03/04 04:12:15;;;;;;;23.83;15.75;;;9.70;99.90;;;;;;4994891;28;20073;-59
2022/03/04 04:14:42;;;;;;;25.95;14.82;;;9.70;99.90;;;;;;4979293;28;20050;-59
2022/03/04 04:17:08;;;;;;;25.90;16.13;;;9.70;99.90;;;;;;4996111;28;20097;-60
2022/03/04 04:19:35;;;;;;;32.08;17.63;;;9.60;99.90;;;;;;4996262;28;20046;-60
2022/03/04 04:22:02;;;;;;;28.48;17.00;;;9.60;99.90;;;;;;4995898;28;20070;-60
2022/03/04 04:24:29;;;;;;;26.60;16.88;;;9.60;99.90;;;;;;4995777;28;20085;-60
2022/03/04 04:26:56;;;;;;;26.30;15.77;;;9.70;99.90;;;;;;4996339;28;20046;-60
2022/03/04 04:29:23;;;;;;;34.35;19.63;;;9.70;99.90;;;;;;4995759;28;20034;-60
2022/03/04 04:31:49;;;;;;;25.67;15.18;;;9.70;99.90;;;;;;4979396;28;20074;-60
2022/03/04 04:34:16;;;;;;;26.33;15.88;;;9.70;99.90;;;;;;4995689;28;20076;-60
2022/03/04 04:36:43;;;;;;;26.60;16.20;;;9.70;99.90;;;;;;4995939;28;20070;-60
2022/03/04 04:39:10;;;;;;;24.73;15.63;;;9.70;99.90;;;;;;4995385;28;20027;-60
2022/03/04 04:41:37;;;;;;;23.98;16.73;;;9.70;99.90;;;;;;4995708;28;20078;-60
2022/03/04 04:44:04;;;;;;;26.70;16.10;;;9.70;99.90;;;;;;4995396;28;20070;-58
2022/03/04 04:46:31;;;;;;;26.42;17.13;;;9.70;99.90;;;;;;4995130;28;20350;-60
2022/03/04 04:48:58;;;;;;;34.97;17.17;;;9.70;99.90;;;;;;4978584;28;20066;-60
2022/03/04 04:51:24;;;;;;;27.52;16.75;;;9.60;99.90;;;;;;4995655;28;20035;-60
2022/03/04 04:53:52;;;;;;;28.83;17.15;;;9.60;99.90;;;;;;4978493;28;20031;-61
2022/03/04 04:56:20;;;;;;;29.50;18.40;;;9.60;99.90;;;;;;4996566;28;20035;-60
2022/03/04 04:58:47;;;;;;;26.63;16.55;;;9.70;99.90;;;;;;4997761;28;20042;-60
2022/03/04 05:01:15;;;;;;;32.00;16.98;;;9.70;99.90;;;;;;4997744;28;20030;-59
2022/03/04 05:03:43;;;;;;;32.33;18.27;;;9.70;99.90;;;;;;4980668;28;20050;-60
2022/03/04 05:06:10;;;;;;;25.90;15.90;;;9.70;99.90;;;;;;4997734;28;20046;-60
2022/03/04 05:08:37;;;;;;;29.05;17.90;;;9.70;99.90;;;;;;4997678;28;20023;-61
2022/03/04 05:11:04;;;;;;;34.75;16.98;;;9.70;99.90;;;;;;4995556;28;20035;-61
2022/03/04 05:13:31;;;;;;;26.80;17.10;;;9.70;99.90;;;;;;4997039;28;20066;-60
2022/03/04 05:15:57;;;;;;;28.95;15.98;;;9.70;99.90;;;;;;4996834;28;20066;-60
2022/03/04 05:18:24;;;;;;;30.63;17.05;;;9.70;99.90;;;;;;4997613;28;20039;-60
2022/03/04 05:20:52;;;;;;;26.38;17.27;;;9.70;99.90;;;;;;4997097;28;20057;-59
2022/03/04 05:26:04;;;;;;;33.38;17.20;;;9.70;99.90;;;;;;4997159;28;20051;-60
2022/03/04 05:28:31;;;;;;;27.90;16.75;;;9.60;99.90;;;;;;4997521;28;20048;-60
2022/03/04 05:30:58;;;;;;;33.60;20.10;;;9.70;99.90;;;;;;4997106;28;20060;-61
2022/03/04 05:33:25;;;;;;;30.17;16.77;;;9.60;99.90;;;;;;4997402;28;20042;-61
2022/03/04 05:35:52;;;;;;;27.60;17.77;;;9.60;99.90;;;;;;4997118;28;20034;-60
2022/03/04 05:38:19;;;;;;;28.88;17.58;;;9.50;99.90;;;;;;4980742;28;20035;-61
2022/03/04 05:40:45;;;;;;;37.45;19.95;;;9.60;99.90;;;;;;4996977;28;20031;-60
2022/03/04 05:43:13;;;;;;;28.40;17.95;;;9.60;99.90;;;;;;4997393;28;20027;-60
2022/03/04 05:45:39;;;;;;;35.22;20.23;;;9.60;99.90;;;;;;4996450;28;20042;-62
2022/03/04 05:48:07;;;;;;;35.60;20.98;;;9.60;99.90;;;;;;4980455;28;20038;-61
2022/03/04 05:50:34;;;;;;;35.97;18.75;;;9.60;99.90;;;;;;4996401;28;20026;-60
2022/03/04 05:53:00;;;;;;;27.15;17.90;;;9.60;99.90;;;;;;4997219;28;20034;-61
2022/03/04 05:55:27;;;;;;;31.27;18.48;;;9.60;99.90;;;;;;4997041;28;20027;-60
2022/03/04 05:57:54;;;;;;;30.35;18.80;;;9.60;99.90;;;;;;4980678;28;20031;-61
2022/03/04 06:00:21;;;;;;;28.63;18.60;;;9.60;99.90;;;;;;4997180;28;20047;-61
2022/03/04 06:02:48;;;;;;;31.90;17.90;;;9.60;99.90;;;;;;4997196;28;20039;-61
2022/03/04 06:05:15;;;;;;;29.45;18.85;;;9.60;99.90;;;;;;4980276;28;20046;-60
2022/03/04 06:07:42;;;;;;;36.67;19.30;;;9.60;99.90;;;;;;4997694;28;20042;-60
2022/03/04 06:10:10;;;;;;;34.95;18.52;;;9.60;99.90;;;;;;5000484;28;20030;-61
2022/03/04 06:12:37;;;;;;;38.60;20.05;;;9.60;99.90;;;;;;4983837;28;20039;-60
2022/03/04 06:15:04;;;;;;;30.65;18.48;;;9.60;99.90;;;;;;5000912;28;20047;-59
2022/03/04 06:17:31;;;;;;;36.17;19.80;;;9.70;99.90;;;;;;5000597;28;20074;-60
2022/03/04 06:19:58;;;;;;;38.20;21.25;;;9.60;99.90;;;;;;5000239;28;20023;-60
2022/03/04 06:22:25;;;;;;;30.90;20.00;;;9.60;99.90;;;;;;4980914;28;20039;-60
2022/03/04 06:24:51;;;;;;;30.88;17.85;;;9.60;99.90;;;;;;4979794;28;20053;-60
2022/03/04 06:27:18;;;;;;;33.28;20.67;;;9.60;99.90;;;;;;4984312;28;20054;-61
2022/03/04 06:29:45;;;;;;;29.98;19.73;;;9.60;99.90;;;;;;5000615;28;20035;-59
2022/03/04 06:32:14;;;;;;;40.80;19.95;;;9.60;99.90;;;;;;4982129;28;20031;-61
2022/03/04 06:34:41;;;;;;;34.85;19.58;;;9.60;99.90;;;;;;5005096;28;20078;-60
2022/03/04 06:37:08;;;;;;;32.40;19.80;;;9.60;99.90;;;;;;4997365;28;20030;-60
2022/03/04 06:39:35;;;;;;;33.72;19.23;;;9.70;99.90;;;;;;5002740;28;20065;-59
2022/03/04 06:42:04;;;;;;;35.10;18.83;;;9.70;99.90;;;;;;5010857;28;20030;-61
2022/03/04 06:44:31;;;;;;;36.72;20.98;;;9.70;99.90;;;;;;4986076;28;20035;-59
2022/03/04 06:46:57;;;;;;;33.13;19.33;;;9.70;99.90;;;;;;4999354;28;20073;-60
2022/03/04 06:49:24;;;;;;;27.52;17.50;;;9.70;99.90;;;;;;4990390;28;20070;-61
2022/03/04 06:51:52;;;;;;;33.17;19.63;;;9.70;99.90;;;;;;5010436;28;20043;-60
2022/03/04 06:54:25;;;;;;;33.38;19.90;;;9.70;99.90;;;;;;4823022;28;10001126;-60
2022/03/04 06:56:51;;;;;;;30.85;19.63;;;9.70;99.90;;;;;;5012012;28;20242;-60
2022/03/04 06:59:18;;;;;;;34.75;21.40;;;9.70;99.90;;;;;;4998527;28;20073;-59
2022/03/04 07:01:45;;;;;;;35.97;23.02;;;9.70;99.90;;;;;;5000048;28;20030;-60
2022/03/04 07:04:12;;;;;;;34.70;20.95;;;9.70;99.90;;;;;;4999208;28;20211;-60
2022/03/04 07:06:39;;;;;;;34.58;21.52;;;9.70;99.90;;;;;;4999748;28;20047;-60
2022/03/04 07:09:07;;;;;;;34.17;21.65;;;9.60;99.90;;;;;;4999876;28;20054;-60
2022/03/04 07:11:34;;;;;;;34.28;21.73;;;9.70;99.90;;;;;;4983240;28;20043;-62
2022/03/04 07:14:00;;;;;;;40.28;22.15;;;9.70;99.90;;;;;;4999615;28;20078;-62
2022/03/04 07:16:27;;;;;;;38.60;23.58;;;9.70;99.90;;;;;;4999677;28;20035;-59
2022/03/04 07:18:54;;;;;;;41.65;22.80;;;9.80;99.90;;;;;;4998039;28;20031;-59
2022/03/04 07:21:21;;;;;;;37.35;23.98;;;9.90;99.90;;;;;;4979316;28;20043;-61
2022/03/04 07:23:48;;;;;;;37.58;22.15;;;9.90;99.90;;;;;;4985612;28;20054;-60
2022/03/04 07:26:16;;;;;;;34.50;22.17;;;9.90;99.90;;;;;;4998887;28;20030;-60
2022/03/04 07:28:43;;;;;;;43.78;22.45;;;10.00;99.90;;;;;;4999367;28;20074;-60
2022/03/04 07:31:10;;;;;;;43.10;23.17;;;9.90;99.90;;;;;;4999129;28;20039;-59
2022/03/04 07:33:37;;;;;;;34.63;21.55;;;9.90;99.90;;;;;;4998732;28;20050;-61
2022/03/04 07:36:04;;;;;;;44.53;24.77;;;9.90;99.90;;;;;;4978569;28;20050;-61
2022/03/04 07:38:31;;;;;;;38.00;21.48;;;10.00;99.90;;;;;;4966383;28;20042;-60
2022/03/04 07:40:58;;;;;;;36.80;19.70;;;10.00;99.90;;;;;;4997520;28;20019;-60
2022/03/04 07:43:25;;;;;;;37.78;20.27;;;10.10;99.90;;;;;;4981925;28;20074;-61
2022/03/04 07:45:52;;;;;;;33.72;19.58;;;10.10;99.90;;;;;;4997229;28;20047;-60
2022/03/04 07:48:20;;;;;;;29.45;14.60;;;10.10;99.90;;;;;;4982225;28;20042;-61
2022/03/04 07:50:46;;;;;;;30.35;12.95;;;10.20;99.90;;;;;;4998954;28;20031;-61
2022/03/04 07:53:13;;;;;;;25.02;13.77;;;10.10;99.90;;;;;;4982622;28;20038;-60
2022/03/04 07:55:40;;;;;;;25.80;12.60;;;10.20;99.90;;;;;;4997305;28;20035;-62
2022/03/04 07:58:07;;;;;;;17.17;11.10;;;10.20;99.90;;;;;;4996890;28;20074;-60
2022/03/04 08:00:34;;;;;;;23.80;11.85;;;10.20;99.90;;;;;;4996819;28;20051;-60
2022/03/04 08:03:01;;;;;;;23.55;11.82;;;10.30;99.90;;;;;;4964607;28;20460;-60
2022/03/04 08:05:28;;;;;;;26.08;14.32;;;10.30;99.90;;;;;;4993133;28;20038;-59
2022/03/04 08:07:55;;;;;;;21.75;12.90;;;10.40;99.90;;;;;;5016164;28;20039;-59
2022/03/04 08:10:22;;;;;;;25.50;12.57;;;10.40;99.90;;;;;;5016479;28;20054;-60
2022/03/04 08:12:49;;;;;;;23.80;13.23;;;10.40;99.90;;;;;;5000803;28;20056;-60
2022/03/04 08:15:16;;;;;;;22.83;13.20;;;10.40;99.90;;;;;;5017330;28;20054;-61
2022/03/04 08:17:44;;;;;;;28.65;13.13;;;10.50;99.90;;;;;;5000775;28;20034;-61
2022/03/04 08:20:11;;;;;;;31.58;11.60;;;10.40;99.90;;;;;;5017092;28;20046;-60
2022/03/04 08:22:38;;;;;;;21.15;12.05;;;10.30;99.90;;;;;;5017877;28;20054;-60
2022/03/04 08:25:05;;;;;;;23.00;11.50;;;10.40;99.90;;;;;;4985174;28;20102;-61
2022/03/04 08:27:39;;;;;;;23.40;12.77;;;10.40;99.90;;;;;;5000525;28;20027;-60
2022/03/04 08:30:10;;;;;;;31.45;13.15;;;10.40;99.90;;;;;;5016788;28;20062;-60
2022/03/04 08:32:37;;;;;;;26.77;14.75;;;10.40;99.90;;;;;;5000022;28;20050;-60
2022/03/04 08:35:04;;;;;;;22.90;12.55;;;10.50;99.90;;;;;;5017507;28;20061;-58
2022/03/04 08:37:31;;;;;;;26.88;13.25;;;10.50;99.90;;;;;;5000092;28;20054;-61
2022/03/04 08:39:59;;;;;;;27.00;14.93;;;10.50;99.90;;;;;;5016893;28;20031;-60
2022/03/04 08:42:26;;;;;;;27.95;14.30;;;10.60;99.90;;;;;;5016766;28;20219;-60
2022/03/04 08:44:54;;;;;;;26.95;13.55;;;10.60;99.90;;;;;;5016506;28;20040;-61
2022/03/04 08:47:21;;;;;;;24.05;11.82;;;10.60;99.90;;;;;;5014224;28;20093;-60
2022/03/04 08:49:50;;;;;;;24.58;11.48;;;10.60;99.90;;;;;;5016929;28;20054;-61
2022/03/04 08:52:16;;;;;;;25.52;12.90;;;10.60;99.90;;;;;;5016871;28;20034;-60
2022/03/04 08:54:43;;;;;;;19.40;11.95;;;10.60;99.90;;;;;;4994909;28;20034;-61
2022/03/04 08:57:10;;;;;;;20.70;12.15;;;10.60;99.90;;;;;;4998985;28;20081;-60
2022/03/04 08:59:38;;;;;;;24.17;12.23;;;10.60;99.90;;;;;;4999549;28;20035;-60
2022/03/04 09:02:05;;;;;;;26.33;13.40;;;10.60;99.90;;;;;;5015599;28;20047;-60
2022/03/04 09:04:32;;;;;;;22.80;12.50;;;10.50;99.90;;;;;;5016742;28;20061;-60
2022/03/04 09:06:59;;;;;;;25.63;12.75;;;10.50;99.90;;;;;;4999243;28;20098;-60
2022/03/04 09:09:27;;;;;;;23.35;12.98;;;10.50;99.90;;;;;;5015446;28;20034;-60
2022/03/04 09:11:54;;;;;;;28.55;12.80;;;10.60;99.90;;;;;;4982268;28;20045;-59
2022/03/04 09:14:23;;;;;;;25.58;14.18;;;10.60;99.90;;;;;;5015034;28;20062;-60
2022/03/04 09:16:51;;;;;;;28.65;15.10;;;10.50;99.90;;;;;;5015196;28;20039;-60
2022/03/04 09:19:19;;;;;;;28.52;14.20;;;10.50;99.90;;;;;;5013901;28;20146;-60
2022/03/04 09:21:47;;;;;;;21.58;12.88;;;10.40;99.90;;;;;;4998079;28;20113;-61
2022/03/04 09:24:14;;;;;;;24.63;11.73;;;10.50;99.90;;;;;;4997708;28;20061;-60
2022/03/04 09:26:41;;;;;;;26.30;12.52;;;10.60;99.90;;;;;;5015503;28;20069;-60
2022/03/04 09:29:08;;;;;;;27.02;13.57;;;10.60;99.90;;;;;;4997759;28;20081;-60
2022/03/04 09:31:37;;;;;;;30.10;12.88;;;10.60;99.90;;;;;;4998506;28;20057;-61
2022/03/04 09:34:03;;;;;;;24.80;11.73;;;10.60;99.90;;;;;;5015693;28;20049;-60
2022/03/04 09:36:31;;;;;;;18.75;10.45;;;10.60;99.90;;;;;;5016682;28;20026;-61
2022/03/04 09:38:58;;;;;;;28.75;11.90;;;10.70;99.90;;;;;;5016110;28;20030;-60
2022/03/04 09:41:25;;;;;;;33.45;13.13;;;10.80;99.90;;;;;;5016376;28;20081;-60
2022/03/04 09:43:55;;;;;;;21.88;11.10;;;10.70;99.90;;;;;;4982576;28;20101;-62
2022/03/04 09:46:23;;;;;;;31.55;13.57;;;10.70;99.90;;;;;;4999437;28;20040;-60
2022/03/04 09:48:53;;;;;;;23.73;12.73;;;10.60;99.90;;;;;;5015794;28;20030;-59
2022/03/04 09:51:21;;;;;;;28.92;13.75;;;10.50;99.90;;;;;;4999540;28;20030;-60
2022/03/04 09:53:50;;;;;;;29.50;14.98;;;10.30;99.90;;;;;;5015716;28;20145;-60
2022/03/04 09:56:19;;;;;;;33.60;16.25;;;10.10;99.90;;;;;;4989778;28;20026;-61
2022/03/04 09:58:49;;;;;;;27.80;16.27;;;9.90;99.90;;;;;;5015729;28;20026;-60
2022/03/04 10:01:21;;;;;;;31.80;17.30;;;9.70;99.90;;;;;;5005795;28;20048;-59
2022/03/04 10:03:50;;;;;;;32.58;15.70;;;9.70;99.90;;;;;;4999130;28;20034;-60
2022/03/04 10:06:18;;;;;;;42.22;18.23;;;9.70;99.90;;;;;;4983442;28;20034;-59
2022/03/04 10:08:47;;;;;;;40.38;16.83;;;9.80;99.90;;;;;;5015574;28;20058;-60
2022/03/04 10:11:24;;;;;;;28.75;16.52;;;9.80;99.90;;;;;;4995919;28;20030;-61
2022/03/04 10:13:53;;;;;;;30.70;16.67;;;9.80;99.90;;;;;;5015719;28;20082;-60
2022/03/04 10:16:30;;;;;;;34.75;16.52;;;9.80;99.90;;;;;;4999607;28;20065;-60
2022/03/04 10:19:14;;;;;;;32.28;15.05;;;9.80;99.90;;;;;;4998733;28;20034;-60
2022/03/04 10:21:43;;;;;;;29.33;14.03;;;9.60;99.90;;;;;;4996894;28;20073;-60
2022/03/04 10:24:10;;;;;;;35.90;16.35;;;9.60;99.90;;;;;;5016374;28;20094;-60
2022/03/04 10:26:37;;;;;;;35.28;16.60;;;9.60;99.90;;;;;;4999665;28;20030;-59
2022/03/04 10:29:23;;;;;;;29.00;15.60;;;9.50;99.90;;;;;;5015913;28;20069;-61
2022/03/04 10:32:12;;;;;;;26.77;16.08;;;9.40;99.90;;;;;;4982998;28;20038;-60
2022/03/04 10:34:48;;;;;;;30.17;15.88;;;9.40;99.90;;;;;;5015911;28;20034;-61
2022/03/04 10:37:16;;;;;;;32.80;16.42;;;9.40;99.90;;;;;;5016216;28;20154;-61
2022/03/04 10:39:56;;;;;;;27.30;16.58;;;9.50;99.90;;;;;;4999180;28;20061;-61
2022/03/04 10:42:43;;;;;;;31.20;17.55;;;9.30;99.90;;;;;;4997052;28;20293;-60
2022/03/04 10:45:12;;;;;;;30.80;17.23;;;9.30;99.90;;;;;;5016097;28;20038;-58
2022/03/04 10:47:40;;;;;;;32.10;17.65;;;9.20;99.90;;;;;;5016292;28;20137;-61
2022/03/04 10:50:08;;;;;;;35.40;16.08;;;9.20;99.90;;;;;;4999159;28;20077;-60
2022/03/04 10:52:53;;;;;;;22.73;15.50;;;9.20;99.90;;;;;;4999221;28;20035;-61
2022/03/04 10:55:31;;;;;;;29.77;17.27;;;9.10;99.90;;;;;;5005088;28;20045;-61
2022/03/04 10:57:59;;;;;;;29.48;15.70;;;9.20;99.90;;;;;;5017426;28;20031;-61
2022/03/04 11:00:36;;;;;;;26.23;16.58;;;9.20;99.90;;;;;;5019365;28;20036;-59
2022/03/04 11:03:05;;;;;;;27.08;17.65;;;9.20;99.90;;;;;;5016680;28;20037;-60
2022/03/04 11:05:32;;;;;;;27.80;17.20;;;9.20;99.90;;;;;;5002920;28;20073;-60
2022/03/04 11:07:59;;;;;;;25.75;15.02;;;9.10;99.90;;;;;;4986875;28;20053;-60
2022/03/04 11:10:26;;;;;;;23.73;15.13;;;9.20;99.90;;;;;;5019598;28;20050;-61
2022/03/04 11:12:53;;;;;;;28.17;16.23;;;9.20;99.90;;;;;;5019044;28;20045;-61
2022/03/04 11:15:22;;;;;;;25.20;15.02;;;9.20;99.90;;;;;;5019506;28;20049;-61
2022/03/04 11:17:49;;;;;;;23.95;15.48;;;9.20;99.90;;;;;;5002548;28;20051;-60
2022/03/04 11:20:17;;;;;;;30.92;16.83;;;9.20;99.90;;;;;;5018025;28;20038;-61
2022/03/04 11:22:45;;;;;;;28.73;16.38;;;9.00;99.90;;;;;;5018999;28;20046;-61
2022/03/04 11:25:14;;;;;;;33.53;17.88;;;9.10;99.90;;;;;;5002563;28;20081;-60
2022/03/04 11:27:43;;;;;;;36.10;17.88;;;9.10;99.90;;;;;;5018860;28;20022;-60
2022/03/04 11:30:30;;;;;;;43.20;17.63;;;9.00;99.90;;;;;;5019190;28;20046;-59
2022/03/04 11:33:05;;;;;;;29.00;14.82;;;9.10;99.90;;;;;;5018470;28;20042;-61
2022/03/04 11:35:41;;;;;;;21.55;13.25;;;9.00;99.90;;;;;;5018804;28;20068;-60
2022/03/04 11:38:11;;;;;;;24.50;13.37;;;9.00;99.90;;;;;;5018465;28;20074;-60
2022/03/04 11:40:44;;;;;;;18.17;13.32;;;8.90;99.90;;;;;;5002041;28;20034;-60
2022/03/04 11:43:15;;;;;;;25.85;14.70;;;8.90;99.90;;;;;;5001787;28;20077;-62
2022/03/04 11:45:41;;;;;;;28.38;14.35;;;9.00;99.90;;;;;;5001993;28;20030;-60
2022/03/04 11:48:12;;;;;;;23.52;13.70;;;9.10;99.90;;;;;;5018612;28;20022;-60
2022/03/04 11:50:45;;;;;;;20.98;12.98;;;9.00;99.90;;;;;;5018301;28;20041;-59
2022/03/04 11:53:20;;;;;;;16.08;11.23;;;9.00;99.90;;;;;;5018317;28;20038;-60
2022/03/04 11:56:12;;;;;;;18.52;12.32;;;9.00;99.90;;;;;;5018322;28;20038;-60
2022/03/04 11:58:57;;;;;;;15.00;10.40;;;9.00;99.90;;;;;;5018175;28;20050;-60
2022/03/04 12:01:27;;;;;;;17.50;11.27;;;9.00;99.90;;;;;;5018477;28;20039;-60
2022/03/04 12:04:11;;;;;;;17.25;11.20;;;9.00;99.90;;;;;;5010278;28;20034;-60
2022/03/04 12:06:38;;;;;;;22.00;9.90;;;9.00;99.90;;;;;;5015906;28;20030;-60
2022/03/04 12:09:27;;;;;;;17.33;10.68;;;8.90;99.90;;;;;;5000419;28;20030;-62
2022/03/04 12:12:21;;;;;;;17.30;10.30;;;8.90;99.90;;;;;;4985806;28;20038;-61
2022/03/04 12:14:52;;;;;;;21.70;10.73;;;8.90;99.90;;;;;;5018102;28;20053;-61
2022/03/04 12:17:19;;;;;;;17.25;10.82;;;8.80;99.90;;;;;;5001519;28;20053;-61
2022/03/04 12:19:48;;;;;;;19.00;11.32;;;8.80;99.90;;;;;;5017607;28;20089;-63
2022/03/04 12:22:16;;;;;;;18.75;9.95;;;8.90;99.90;;;;;;5001549;28;20046;-60
2022/03/04 12:24:56;;;;;;;17.85;7.93;;;9.00;99.90;;;;;;4985094;28;20061;-62
2022/03/04 12:27:41;;;;;;;15.60;8.13;;;9.00;99.90;;;;;;5017497;28;20037;-61
2022/03/04 12:30:17;;;;;;;10.00;7.47;;;8.90;99.90;;;;;;5000692;28;20031;-61
2022/03/04 12:32:49;;;;;;;13.25;7.63;;;8.90;99.90;;;;;;4998352;28;20111;-60
2022/03/04 12:35:16;;;;;;;17.02;8.90;;;8.80;99.90;;;;;;4997162;28;20047;-60
2022/03/04 12:37:43;;;;;;;11.77;8.52;;;8.80;99.90;;;;;;4985191;28;20035;-59
2022/03/04 12:40:16;;;;;;;13.02;8.60;;;8.80;99.90;;;;;;5017295;28;20046;-61
2022/03/04 12:42:53;;;;;;;11.05;7.70;;;8.80;99.90;;;;;;4997601;28;20051;-61